sensor_id;sensor_type;location;lat;lon;timestamp;P1;durP1;ratioP1;P2;durP2;ratioP2
77004;SDS011;67261;53.132;18.006;2023-07-31T00:02:03;6.20;;;2.50;;
77004;SDS011;67261;53.132;18.006;2023-07-31T00:04:29;4.90;;;2.40;;
77004;SDS011;67261;53.132;18.006;2023-07-31T00:06:55;4.70;;;2.30;;
77004;SDS011;67261;53.132;18.006;2023-07-31T00:09:21;4.80;;;2.20;;
77004;SDS011;67261;53.132;18.006;2023-07-31T00:11:48;4.50;;;2.30;;
77004;SDS011;67261;53.132;18.006;2023-07-31T00:14:14;4.50;;;2.40;;
77004;SDS011;67261;53.132;18.006;2023-07-31T00:16:41;5.00;;;2.30;;
77004;SDS011;67261;53.132;18.006;2023-07-31T00:19:07;4.60;;;2.40;;
77004;SDS011;67261;53.132;18.006;2023-07-31T00:21:34;4.00;;;2.20;;
77004;SDS011;67261;53.132;18.006;2023-07-31T00:24:00;4.60;;;2.10;;
77004;SDS011;67261;53.132;18.006;2023-07-31T00:26:26;3.40;;;2.00;;
77004;SDS011;67261;53.132;18.006;2023-07-31T00:28:52;4.10;;;2.20;;
77004;SDS011;67261;53.132;18.006;2023-07-31T00:31:19;7.20;;;2.40;;
77004;SDS011;67261;53.132;18.006;2023-07-31T00:33:45;5.30;;;2.60;;
77004;SDS011;67261;53.132;18.006;2023-07-31T00:36:11;5.00;;;2.30;;
77004;SDS011;67261;53.132;18.006;2023-07-31T00:38:37;5.80;;;2.50;;
77004;SDS011;67261;53.132;18.006;2023-07-31T00:41:05;4.90;;;2.30;;
77004;SDS011;67261;53.132;18.006;2023-07-31T00:43:32;4.20;;;2.20;;
77004;SDS011;67261;53.132;18.006;2023-07-31T00:45:58;4.60;;;2.20;;
77004;SDS011;67261;53.132;18.006;2023-07-31T00:48:24;4.60;;;2.20;;
77004;SDS011;67261;53.132;18.006;2023-07-31T00:50:51;5.00;;;2.50;;
77004;SDS011;67261;53.132;18.006;2023-07-31T00:53:18;4.70;;;2.20;;
77004;SDS011;67261;53.132;18.006;2023-07-31T00:55:44;4.90;;;2.50;;
77004;SDS011;67261;53.132;18.006;2023-07-31T00:58:11;4.60;;;2.60;;
77004;SDS011;67261;53.132;18.006;2023-07-31T01:00:39;5.00;;;2.50;;
77004;SDS011;67261;53.132;18.006;2023-07-31T01:03:06;6.10;;;2.90;;
77004;SDS011;67261;53.132;18.006;2023-07-31T01:08:26;5.80;;;2.40;;
77004;SDS011;67261;53.132;18.006;2023-07-31T01:11:06;6.50;;;2.80;;
77004;SDS011;67261;53.132;18.006;2023-07-31T01:13:45;5.50;;;2.40;;
77004;SDS011;67261;53.132;18.006;2023-07-31T01:16:12;4.30;;;2.20;;
77004;SDS011;67261;53.132;18.006;2023-07-31T01:18:38;5.50;;;2.80;;
77004;SDS011;67261;53.132;18.006;2023-07-31T01:21:21;5.80;;;2.60;;
77004;SDS011;67261;53.132;18.006;2023-07-31T01:24:02;6.40;;;2.60;;
77004;SDS011;67261;53.132;18.006;2023-07-31T01:27:01;6.00;;;2.50;;
77004;SDS011;67261;53.132;18.006;2023-07-31T01:29:38;5.70;;;3.10;;
77004;SDS011;67261;53.132;18.006;2023-07-31T01:32:12;6.40;;;2.50;;
77004;SDS011;67261;53.132;18.006;2023-07-31T01:34:41;4.20;;;2.40;;
77004;SDS011;67261;53.132;18.006;2023-07-31T01:37:09;5.30;;;2.40;;
77004;SDS011;67261;53.132;18.006;2023-07-31T01:39:35;4.80;;;2.50;;
77004;SDS011;67261;53.132;18.006;2023-07-31T01:42:02;7.50;;;2.80;;
77004;SDS011;67261;53.132;18.006;2023-07-31T01:44:29;7.10;;;2.70;;
77004;SDS011;67261;53.132;18.006;2023-07-31T01:46:55;6.10;;;2.40;;
77004;SDS011;67261;53.132;18.006;2023-07-31T01:49:22;4.80;;;2.40;;
77004;SDS011;67261;53.132;18.006;2023-07-31T01:51:48;8.20;;;2.80;;
77004;SDS011;67261;53.132;18.006;2023-07-31T01:54:15;4.30;;;2.40;;
77004;SDS011;67261;53.132;18.006;2023-07-31T01:56:41;4.70;;;2.20;;
77004;SDS011;67261;53.132;18.006;2023-07-31T01:59:08;6.30;;;2.60;;
77004;SDS011;67261;53.132;18.006;2023-07-31T02:01:34;6.10;;;2.60;;
77004;SDS011;67261;53.132;18.006;2023-07-31T02:06:28;5.60;;;2.70;;
77004;SDS011;67261;53.132;18.006;2023-07-31T02:08:55;5.90;;;2.40;;
77004;SDS011;67261;53.132;18.006;2023-07-31T02:11:21;6.00;;;3.00;;
77004;SDS011;67261;53.132;18.006;2023-07-31T02:13:49;5.70;;;2.90;;
77004;SDS011;67261;53.132;18.006;2023-07-31T02:16:15;5.50;;;2.70;;
77004;SDS011;67261;53.132;18.006;2023-07-31T02:18:42;4.70;;;2.90;;
77004;SDS011;67261;53.132;18.006;2023-07-31T02:21:08;5.00;;;2.70;;
77004;SDS011;67261;53.132;18.006;2023-07-31T02:23:34;6.30;;;2.60;;
77004;SDS011;67261;53.132;18.006;2023-07-31T02:26:00;7.00;;;2.80;;
77004;SDS011;67261;53.132;18.006;2023-07-31T02:28:27;5.60;;;3.20;;
77004;SDS011;67261;53.132;18.006;2023-07-31T02:30:56;6.80;;;2.90;;
77004;SDS011;67261;53.132;18.006;2023-07-31T02:33:22;6.00;;;3.00;;
77004;SDS011;67261;53.132;18.006;2023-07-31T02:35:48;6.00;;;3.00;;
77004;SDS011;67261;53.132;18.006;2023-07-31T02:38:14;5.60;;;2.60;;
77004;SDS011;67261;53.132;18.006;2023-07-31T02:40:41;6.50;;;2.90;;
77004;SDS011;67261;53.132;18.006;2023-07-31T02:43:08;6.80;;;2.90;;
77004;SDS011;67261;53.132;18.006;2023-07-31T02:45:36;5.40;;;2.70;;
77004;SDS011;67261;53.132;18.006;2023-07-31T02:48:02;4.90;;;3.00;;
77004;SDS011;67261;53.132;18.006;2023-07-31T02:50:28;7.60;;;2.90;;
77004;SDS011;67261;53.132;18.006;2023-07-31T02:52:55;5.60;;;2.80;;
77004;SDS011;67261;53.132;18.006;2023-07-31T02:55:21;5.00;;;2.50;;
77004;SDS011;67261;53.132;18.006;2023-07-31T02:57:47;5.40;;;2.90;;
77004;SDS011;67261;53.132;18.006;2023-07-31T03:00:14;5.30;;;2.70;;
77004;SDS011;67261;53.132;18.006;2023-07-31T03:02:40;5.00;;;2.80;;
77004;SDS011;67261;53.132;18.006;2023-07-31T03:05:07;7.00;;;2.90;;
77004;SDS011;67261;53.132;18.006;2023-07-31T03:07:33;6.40;;;3.00;;
77004;SDS011;67261;53.132;18.006;2023-07-31T03:10:00;6.30;;;2.90;;
77004;SDS011;67261;53.132;18.006;2023-07-31T03:12:27;5.10;;;2.80;;
77004;SDS011;67261;53.132;18.006;2023-07-31T03:14:53;5.70;;;2.90;;
77004;SDS011;67261;53.132;18.006;2023-07-31T03:17:20;5.30;;;2.70;;
77004;SDS011;67261;53.132;18.006;2023-07-31T03:19:46;4.70;;;2.80;;
77004;SDS011;67261;53.132;18.006;2023-07-31T03:22:12;6.00;;;2.80;;
77004;SDS011;67261;53.132;18.006;2023-07-31T03:24:39;6.10;;;2.80;;
77004;SDS011;67261;53.132;18.006;2023-07-31T03:27:05;7.00;;;3.70;;
77004;SDS011;67261;53.132;18.006;2023-07-31T03:29:32;5.20;;;3.00;;
77004;SDS011;67261;53.132;18.006;2023-07-31T03:31:58;6.60;;;2.80;;
77004;SDS011;67261;53.132;18.006;2023-07-31T03:34:25;4.70;;;2.40;;
77004;SDS011;67261;53.132;18.006;2023-07-31T03:36:51;6.70;;;2.70;;
77004;SDS011;67261;53.132;18.006;2023-07-31T03:39:18;7.60;;;3.00;;
77004;SDS011;67261;53.132;18.006;2023-07-31T03:41:44;7.20;;;2.60;;
77004;SDS011;67261;53.132;18.006;2023-07-31T03:44:10;6.30;;;2.60;;
77004;SDS011;67261;53.132;18.006;2023-07-31T03:46:38;5.50;;;3.30;;
77004;SDS011;67261;53.132;18.006;2023-07-31T03:49:04;6.50;;;2.70;;
77004;SDS011;67261;53.132;18.006;2023-07-31T03:51:30;5.00;;;2.70;;
77004;SDS011;67261;53.132;18.006;2023-07-31T03:53:56;4.80;;;2.80;;
77004;SDS011;67261;53.132;18.006;2023-07-31T03:56:23;5.90;;;2.70;;
77004;SDS011;67261;53.132;18.006;2023-07-31T03:58:49;8.30;;;2.90;;
77004;SDS011;67261;53.132;18.006;2023-07-31T04:01:16;5.50;;;2.90;;
77004;SDS011;67261;53.132;18.006;2023-07-31T04:03:42;4.80;;;2.30;;
77004;SDS011;67261;53.132;18.006;2023-07-31T04:06:08;7.10;;;2.50;;
77004;SDS011;67261;53.132;18.006;2023-07-31T04:08:35;6.20;;;2.30;;
77004;SDS011;67261;53.132;18.006;2023-07-31T04:11:02;5.60;;;2.60;;
77004;SDS011;67261;53.132;18.006;2023-07-31T04:13:29;6.10;;;2.30;;
77004;SDS011;67261;53.132;18.006;2023-07-31T04:15:56;5.20;;;2.20;;
77004;SDS011;67261;53.132;18.006;2023-07-31T04:18:24;5.20;;;2.30;;
77004;SDS011;67261;53.132;18.006;2023-07-31T04:20:52;4.50;;;2.40;;
77004;SDS011;67261;53.132;18.006;2023-07-31T04:23:18;7.50;;;2.90;;
77004;SDS011;67261;53.132;18.006;2023-07-31T04:25:44;4.70;;;2.40;;
77004;SDS011;67261;53.132;18.006;2023-07-31T04:28:11;5.50;;;2.50;;
77004;SDS011;67261;53.132;18.006;2023-07-31T04:30:37;5.50;;;2.40;;
77004;SDS011;67261;53.132;18.006;2023-07-31T04:33:03;4.50;;;2.20;;
77004;SDS011;67261;53.132;18.006;2023-07-31T04:35:30;4.70;;;2.40;;
77004;SDS011;67261;53.132;18.006;2023-07-31T04:37:56;5.00;;;2.20;;
77004;SDS011;67261;53.132;18.006;2023-07-31T04:40:22;4.30;;;2.10;;
77004;SDS011;67261;53.132;18.006;2023-07-31T04:42:49;4.80;;;2.00;;
77004;SDS011;67261;53.132;18.006;2023-07-31T04:45:15;5.00;;;1.80;;
77004;SDS011;67261;53.132;18.006;2023-07-31T04:47:42;5.20;;;2.00;;
77004;SDS011;67261;53.132;18.006;2023-07-31T04:50:11;5.00;;;1.90;;
77004;SDS011;67261;53.132;18.006;2023-07-31T04:52:37;3.50;;;2.00;;
77004;SDS011;67261;53.132;18.006;2023-07-31T04:57:30;4.30;;;1.90;;
77004;SDS011;67261;53.132;18.006;2023-07-31T04:59:56;4.40;;;1.90;;
77004;SDS011;67261;53.132;18.006;2023-07-31T05:02:23;4.50;;;1.70;;
77004;SDS011;67261;53.132;18.006;2023-07-31T05:04:50;5.10;;;2.00;;
77004;SDS011;67261;53.132;18.006;2023-07-31T05:07:16;3.90;;;1.40;;
77004;SDS011;67261;53.132;18.006;2023-07-31T05:09:44;3.80;;;1.50;;
77004;SDS011;67261;53.132;18.006;2023-07-31T05:12:10;4.50;;;2.10;;
77004;SDS011;67261;53.132;18.006;2023-07-31T05:14:36;4.10;;;1.70;;
77004;SDS011;67261;53.132;18.006;2023-07-31T05:17:03;3.80;;;1.80;;
77004;SDS011;67261;53.132;18.006;2023-07-31T05:19:30;3.70;;;1.50;;
77004;SDS011;67261;53.132;18.006;2023-07-31T05:21:58;5.00;;;2.20;;
77004;SDS011;67261;53.132;18.006;2023-07-31T05:24:25;3.90;;;1.60;;
77004;SDS011;67261;53.132;18.006;2023-07-31T05:26:51;4.20;;;1.50;;
77004;SDS011;67261;53.132;18.006;2023-07-31T05:29:18;4.90;;;1.70;;
77004;SDS011;67261;53.132;18.006;2023-07-31T05:31:44;4.30;;;1.70;;
77004;SDS011;67261;53.132;18.006;2023-07-31T05:34:11;4.60;;;1.80;;
77004;SDS011;67261;53.132;18.006;2023-07-31T05:36:37;4.40;;;1.70;;
77004;SDS011;67261;53.132;18.006;2023-07-31T05:39:03;4.80;;;1.80;;
77004;SDS011;67261;53.132;18.006;2023-07-31T05:41:33;3.70;;;1.50;;
77004;SDS011;67261;53.132;18.006;2023-07-31T05:43:59;4.00;;;1.80;;
77004;SDS011;67261;53.132;18.006;2023-07-31T05:46:25;3.50;;;1.50;;
77004;SDS011;67261;53.132;18.006;2023-07-31T05:48:51;3.30;;;1.30;;
77004;SDS011;67261;53.132;18.006;2023-07-31T05:51:18;3.90;;;1.60;;
77004;SDS011;67261;53.132;18.006;2023-07-31T05:53:44;3.60;;;1.70;;
77004;SDS011;67261;53.132;18.006;2023-07-31T05:56:10;4.70;;;1.60;;
77004;SDS011;67261;53.132;18.006;2023-07-31T05:58:37;4.00;;;1.50;;
77004;SDS011;67261;53.132;18.006;2023-07-31T06:01:03;3.80;;;1.50;;
77004;SDS011;67261;53.132;18.006;2023-07-31T06:03:29;4.30;;;1.60;;
77004;SDS011;67261;53.132;18.006;2023-07-31T06:05:56;4.10;;;1.80;;
77004;SDS011;67261;53.132;18.006;2023-07-31T06:08:22;4.40;;;1.40;;
77004;SDS011;67261;53.132;18.006;2023-07-31T06:10:48;3.10;;;1.10;;
77004;SDS011;67261;53.132;18.006;2023-07-31T06:13:15;4.70;;;1.50;;
77004;SDS011;67261;53.132;18.006;2023-07-31T06:15:41;3.60;;;1.50;;
77004;SDS011;67261;53.132;18.006;2023-07-31T06:18:07;4.00;;;1.40;;
77004;SDS011;67261;53.132;18.006;2023-07-31T06:20:34;3.60;;;1.40;;
77004;SDS011;67261;53.132;18.006;2023-07-31T06:23:01;3.40;;;1.20;;
77004;SDS011;67261;53.132;18.006;2023-07-31T06:25:28;4.70;;;1.40;;
77004;SDS011;67261;53.132;18.006;2023-07-31T06:27:54;3.20;;;1.30;;
77004;SDS011;67261;53.132;18.006;2023-07-31T06:30:20;3.80;;;1.20;;
77004;SDS011;67261;53.132;18.006;2023-07-31T06:32:47;4.50;;;1.70;;
77004;SDS011;67261;53.132;18.006;2023-07-31T06:35:14;3.60;;;1.20;;
77004;SDS011;67261;53.132;18.006;2023-07-31T06:37:45;3.30;;;1.10;;
77004;SDS011;67261;53.132;18.006;2023-07-31T06:40:15;3.70;;;1.40;;
77004;SDS011;67261;53.132;18.006;2023-07-31T06:42:43;3.10;;;1.20;;
77004;SDS011;67261;53.132;18.006;2023-07-31T06:45:09;3.80;;;1.40;;
77004;SDS011;67261;53.132;18.006;2023-07-31T06:47:36;3.70;;;1.30;;
77004;SDS011;67261;53.132;18.006;2023-07-31T06:50:03;3.70;;;1.50;;
77004;SDS011;67261;53.132;18.006;2023-07-31T06:52:31;3.50;;;1.40;;
77004;SDS011;67261;53.132;18.006;2023-07-31T06:55:01;3.50;;;1.20;;
77004;SDS011;67261;53.132;18.006;2023-07-31T06:57:57;3.90;;;1.20;;
77004;SDS011;67261;53.132;18.006;2023-07-31T07:02:50;3.70;;;1.40;;
77004;SDS011;67261;53.132;18.006;2023-07-31T07:05:17;4.30;;;1.30;;
77004;SDS011;67261;53.132;18.006;2023-07-31T07:07:43;4.60;;;1.90;;
77004;SDS011;67261;53.132;18.006;2023-07-31T07:10:10;3.80;;;1.70;;
77004;SDS011;67261;53.132;18.006;2023-07-31T07:12:36;4.30;;;1.50;;
77004;SDS011;67261;53.132;18.006;2023-07-31T07:17:29;3.90;;;1.60;;
77004;SDS011;67261;53.132;18.006;2023-07-31T07:19:59;3.40;;;1.30;;
77004;SDS011;67261;53.132;18.006;2023-07-31T07:22:26;4.10;;;1.30;;
77004;SDS011;67261;53.132;18.006;2023-07-31T07:24:53;4.10;;;1.60;;
77004;SDS011;67261;53.132;18.006;2023-07-31T07:27:20;5.80;;;1.90;;
77004;SDS011;67261;53.132;18.006;2023-07-31T07:29:47;5.30;;;1.70;;
77004;SDS011;67261;53.132;18.006;2023-07-31T07:32:17;4.40;;;1.50;;
77004;SDS011;67261;53.132;18.006;2023-07-31T07:34:44;3.10;;;1.40;;
77004;SDS011;67261;53.132;18.006;2023-07-31T07:37:11;4.00;;;1.10;;
77004;SDS011;67261;53.132;18.006;2023-07-31T07:39:38;4.30;;;1.50;;
77004;SDS011;67261;53.132;18.006;2023-07-31T07:42:05;4.20;;;1.40;;
77004;SDS011;67261;53.132;18.006;2023-07-31T07:44:31;4.00;;;1.30;;
77004;SDS011;67261;53.132;18.006;2023-07-31T07:46:59;4.40;;;1.60;;
77004;SDS011;67261;53.132;18.006;2023-07-31T07:49:26;4.20;;;1.30;;
77004;SDS011;67261;53.132;18.006;2023-07-31T07:51:52;4.80;;;1.50;;
77004;SDS011;67261;53.132;18.006;2023-07-31T07:54:18;5.10;;;1.50;;
77004;SDS011;67261;53.132;18.006;2023-07-31T07:56:47;4.70;;;1.70;;
77004;SDS011;67261;53.132;18.006;2023-07-31T07:59:13;4.40;;;1.80;;
77004;SDS011;67261;53.132;18.006;2023-07-31T08:01:39;3.80;;;1.80;;
77004;SDS011;67261;53.132;18.006;2023-07-31T08:04:06;5.10;;;1.40;;
77004;SDS011;67261;53.132;18.006;2023-07-31T08:06:33;6.70;;;1.50;;
77004;SDS011;67261;53.132;18.006;2023-07-31T08:08:59;3.20;;;1.30;;
77004;SDS011;67261;53.132;18.006;2023-07-31T08:11:25;5.20;;;1.70;;
77004;SDS011;67261;53.132;18.006;2023-07-31T08:13:52;5.10;;;2.00;;
77004;SDS011;67261;53.132;18.006;2023-07-31T08:16:19;3.90;;;1.30;;
77004;SDS011;67261;53.132;18.006;2023-07-31T08:18:45;4.00;;;1.40;;
77004;SDS011;67261;53.132;18.006;2023-07-31T08:21:11;3.70;;;1.30;;
77004;SDS011;67261;53.132;18.006;2023-07-31T08:23:38;3.40;;;1.20;;
77004;SDS011;67261;53.132;18.006;2023-07-31T08:26:04;4.10;;;1.30;;
77004;SDS011;67261;53.132;18.006;2023-07-31T08:28:30;5.10;;;1.70;;
77004;SDS011;67261;53.132;18.006;2023-07-31T08:30:57;6.10;;;1.60;;
77004;SDS011;67261;53.132;18.006;2023-07-31T08:33:23;3.80;;;1.20;;
77004;SDS011;67261;53.132;18.006;2023-07-31T08:35:50;3.40;;;1.10;;
77004;SDS011;67261;53.132;18.006;2023-07-31T08:38:16;5.20;;;1.40;;
77004;SDS011;67261;53.132;18.006;2023-07-31T08:40:42;4.20;;;1.20;;
77004;SDS011;67261;53.132;18.006;2023-07-31T08:43:09;5.00;;;1.50;;
77004;SDS011;67261;53.132;18.006;2023-07-31T08:45:35;5.80;;;1.80;;
77004;SDS011;67261;53.132;18.006;2023-07-31T08:48:02;5.30;;;1.70;;
77004;SDS011;67261;53.132;18.006;2023-07-31T08:50:29;4.80;;;1.50;;
77004;SDS011;67261;53.132;18.006;2023-07-31T08:52:55;4.40;;;1.40;;
77004;SDS011;67261;53.132;18.006;2023-07-31T08:55:22;4.10;;;1.50;;
77004;SDS011;67261;53.132;18.006;2023-07-31T08:57:51;5.30;;;1.10;;
77004;SDS011;67261;53.132;18.006;2023-07-31T09:00:21;3.80;;;1.40;;
77004;SDS011;67261;53.132;18.006;2023-07-31T09:02:53;3.80;;;1.30;;
77004;SDS011;67261;53.132;18.006;2023-07-31T09:05:23;3.80;;;1.10;;
77004;SDS011;67261;53.132;18.006;2023-07-31T09:07:52;3.90;;;1.20;;
77004;SDS011;67261;53.132;18.006;2023-07-31T09:10:21;3.70;;;1.50;;
77004;SDS011;67261;53.132;18.006;2023-07-31T09:12:50;6.30;;;2.20;;
77004;SDS011;67261;53.132;18.006;2023-07-31T09:15:18;5.20;;;2.50;;
77004;SDS011;67261;53.132;18.006;2023-07-31T09:17:44;4.80;;;1.90;;
77004;SDS011;67261;53.132;18.006;2023-07-31T09:20:15;4.80;;;1.60;;
77004;SDS011;67261;53.132;18.006;2023-07-31T09:22:43;4.40;;;1.40;;
77004;SDS011;67261;53.132;18.006;2023-07-31T09:25:18;4.30;;;1.60;;
77004;SDS011;67261;53.132;18.006;2023-07-31T09:27:53;5.70;;;1.60;;
77004;SDS011;67261;53.132;18.006;2023-07-31T09:30:25;4.50;;;1.70;;
77004;SDS011;67261;53.132;18.006;2023-07-31T09:33:00;4.50;;;1.70;;
77004;SDS011;67261;53.132;18.006;2023-07-31T09:35:30;4.80;;;1.70;;
77004;SDS011;67261;53.132;18.006;2023-07-31T09:37:59;6.00;;;1.90;;
77004;SDS011;67261;53.132;18.006;2023-07-31T09:40:27;4.80;;;1.80;;
77004;SDS011;67261;53.132;18.006;2023-07-31T09:42:58;3.80;;;1.80;;
77004;SDS011;67261;53.132;18.006;2023-07-31T09:45:28;4.30;;;1.60;;
77004;SDS011;67261;53.132;18.006;2023-07-31T09:47:55;6.20;;;1.80;;
77004;SDS011;67261;53.132;18.006;2023-07-31T09:50:23;5.00;;;1.70;;
77004;SDS011;67261;53.132;18.006;2023-07-31T09:52:51;6.20;;;1.80;;
77004;SDS011;67261;53.132;18.006;2023-07-31T09:55:19;5.30;;;1.50;;
77004;SDS011;67261;53.132;18.006;2023-07-31T09:57:47;5.50;;;1.70;;
77004;SDS011;67261;53.132;18.006;2023-07-31T10:00:16;4.00;;;1.80;;
77004;SDS011;67261;53.132;18.006;2023-07-31T10:02:45;5.40;;;1.80;;
77004;SDS011;67261;53.132;18.006;2023-07-31T10:05:14;6.10;;;2.00;;
77004;SDS011;67261;53.132;18.006;2023-07-31T10:07:45;5.30;;;2.10;;
77004;SDS011;67261;53.132;18.006;2023-07-31T10:10:20;6.10;;;2.10;;
77004;SDS011;67261;53.132;18.006;2023-07-31T10:12:49;5.50;;;1.90;;
77004;SDS011;67261;53.132;18.006;2023-07-31T10:15:18;5.20;;;2.10;;
77004;SDS011;67261;53.132;18.006;2023-07-31T10:17:49;4.50;;;1.70;;
77004;SDS011;67261;53.132;18.006;2023-07-31T10:20:18;5.40;;;2.10;;
77004;SDS011;67261;53.132;18.006;2023-07-31T10:22:44;6.30;;;2.00;;
77004;SDS011;67261;53.132;18.006;2023-07-31T10:25:15;4.20;;;2.10;;
77004;SDS011;67261;53.132;18.006;2023-07-31T10:27:42;5.80;;;2.00;;
77004;SDS011;67261;53.132;18.006;2023-07-31T10:30:09;5.20;;;2.10;;
77004;SDS011;67261;53.132;18.006;2023-07-31T10:32:41;4.80;;;2.40;;
77004;SDS011;67261;53.132;18.006;2023-07-31T10:35:09;6.70;;;2.60;;
77004;SDS011;67261;53.132;18.006;2023-07-31T10:37:37;5.90;;;1.90;;
77004;SDS011;67261;53.132;18.006;2023-07-31T10:40:18;4.90;;;2.30;;
77004;SDS011;67261;53.132;18.006;2023-07-31T10:42:56;4.10;;;2.00;;
77004;SDS011;67261;53.132;18.006;2023-07-31T10:45:37;5.30;;;2.50;;
77004;SDS011;67261;53.132;18.006;2023-07-31T10:48:12;5.30;;;2.20;;
77004;SDS011;67261;53.132;18.006;2023-07-31T10:50:49;5.80;;;2.00;;
77004;SDS011;67261;53.132;18.006;2023-07-31T10:53:24;5.30;;;1.80;;
77004;SDS011;67261;53.132;18.006;2023-07-31T10:56:05;6.20;;;2.20;;
77004;SDS011;67261;53.132;18.006;2023-07-31T10:58:33;6.30;;;2.00;;
77004;SDS011;67261;53.132;18.006;2023-07-31T11:01:01;6.00;;;2.10;;
77004;SDS011;67261;53.132;18.006;2023-07-31T11:03:42;5.80;;;1.70;;
77004;SDS011;67261;53.132;18.006;2023-07-31T11:06:11;4.60;;;1.60;;
77004;SDS011;67261;53.132;18.006;2023-07-31T11:08:49;4.10;;;1.70;;
77004;SDS011;67261;53.132;18.006;2023-07-31T11:11:17;4.70;;;1.70;;
77004;SDS011;67261;53.132;18.006;2023-07-31T11:13:45;5.10;;;1.60;;
77004;SDS011;67261;53.132;18.006;2023-07-31T11:16:16;5.00;;;1.40;;
77004;SDS011;67261;53.132;18.006;2023-07-31T11:18:44;4.50;;;1.60;;
77004;SDS011;67261;53.132;18.006;2023-07-31T11:21:16;4.60;;;1.60;;
77004;SDS011;67261;53.132;18.006;2023-07-31T11:23:47;3.60;;;1.50;;
77004;SDS011;67261;53.132;18.006;2023-07-31T11:26:16;5.80;;;1.60;;
77004;SDS011;67261;53.132;18.006;2023-07-31T11:28:45;4.50;;;1.80;;
77004;SDS011;67261;53.132;18.006;2023-07-31T11:31:12;4.90;;;1.80;;
77004;SDS011;67261;53.132;18.006;2023-07-31T11:33:39;4.10;;;1.80;;
77004;SDS011;67261;53.132;18.006;2023-07-31T11:36:05;5.30;;;1.60;;
77004;SDS011;67261;53.132;18.006;2023-07-31T11:38:33;3.40;;;1.30;;
77004;SDS011;67261;53.132;18.006;2023-07-31T11:41:04;4.20;;;1.60;;
77004;SDS011;67261;53.132;18.006;2023-07-31T11:43:32;5.50;;;1.80;;
77004;SDS011;67261;53.132;18.006;2023-07-31T11:46:00;4.10;;;1.60;;
77004;SDS011;67261;53.132;18.006;2023-07-31T11:48:29;4.70;;;1.50;;
77004;SDS011;67261;53.132;18.006;2023-07-31T11:51:00;4.30;;;1.70;;
77004;SDS011;67261;53.132;18.006;2023-07-31T11:53:29;4.80;;;1.60;;
77004;SDS011;67261;53.132;18.006;2023-07-31T11:55:59;4.90;;;1.70;;
77004;SDS011;67261;53.132;18.006;2023-07-31T11:58:28;4.50;;;1.70;;
77004;SDS011;67261;53.132;18.006;2023-07-31T12:00:56;5.00;;;1.90;;
77004;SDS011;67261;53.132;18.006;2023-07-31T12:03:23;5.70;;;1.70;;
77004;SDS011;67261;53.132;18.006;2023-07-31T12:05:50;5.80;;;2.00;;
77004;SDS011;67261;53.132;18.006;2023-07-31T12:08:16;4.60;;;1.80;;
77004;SDS011;67261;53.132;18.006;2023-07-31T12:10:43;4.40;;;2.30;;
77004;SDS011;67261;53.132;18.006;2023-07-31T12:13:11;5.50;;;2.00;;
77004;SDS011;67261;53.132;18.006;2023-07-31T12:15:48;4.70;;;1.70;;
77004;SDS011;67261;53.132;18.006;2023-07-31T12:18:18;5.30;;;1.60;;
77004;SDS011;67261;53.132;18.006;2023-07-31T12:20:46;3.50;;;1.60;;
77004;SDS011;67261;53.132;18.006;2023-07-31T12:25:41;3.90;;;1.60;;
77004;SDS011;67261;53.132;18.006;2023-07-31T12:28:07;3.90;;;1.60;;
77004;SDS011;67261;53.132;18.006;2023-07-31T12:30:38;4.50;;;1.50;;
77004;SDS011;67261;53.132;18.006;2023-07-31T12:33:13;3.20;;;1.60;;
77004;SDS011;67261;53.132;18.006;2023-07-31T12:35:41;3.30;;;1.30;;
77004;SDS011;67261;53.132;18.006;2023-07-31T12:38:11;3.20;;;1.10;;
77004;SDS011;67261;53.132;18.006;2023-07-31T12:40:41;3.20;;;1.40;;
77004;SDS011;67261;53.132;18.006;2023-07-31T12:43:08;2.70;;;1.30;;
77004;SDS011;67261;53.132;18.006;2023-07-31T12:48:01;3.90;;;1.50;;
77004;SDS011;67261;53.132;18.006;2023-07-31T12:50:27;4.50;;;1.90;;
77004;SDS011;67261;53.132;18.006;2023-07-31T12:52:56;3.80;;;1.50;;
77004;SDS011;67261;53.132;18.006;2023-07-31T12:55:23;5.00;;;2.10;;
77004;SDS011;67261;53.132;18.006;2023-07-31T12:57:51;3.30;;;1.60;;
77004;SDS011;67261;53.132;18.006;2023-07-31T13:00:18;4.40;;;1.60;;
77004;SDS011;67261;53.132;18.006;2023-07-31T13:02:45;3.70;;;1.50;;
77004;SDS011;67261;53.132;18.006;2023-07-31T13:05:11;3.80;;;1.50;;
77004;SDS011;67261;53.132;18.006;2023-07-31T13:07:39;3.50;;;1.60;;
77004;SDS011;67261;53.132;18.006;2023-07-31T13:10:06;3.50;;;1.70;;
77004;SDS011;67261;53.132;18.006;2023-07-31T13:12:33;4.10;;;1.90;;
77004;SDS011;67261;53.132;18.006;2023-07-31T13:15:00;4.40;;;1.90;;
77004;SDS011;67261;53.132;18.006;2023-07-31T13:17:26;4.20;;;2.10;;
77004;SDS011;67261;53.132;18.006;2023-07-31T13:19:52;5.20;;;1.80;;
77004;SDS011;67261;53.132;18.006;2023-07-31T13:22:20;4.60;;;2.00;;
77004;SDS011;67261;53.132;18.006;2023-07-31T13:24:46;11.40;;;7.40;;
77004;SDS011;67261;53.132;18.006;2023-07-31T13:27:14;9.00;;;5.80;;
77004;SDS011;67261;53.132;18.006;2023-07-31T13:29:45;3.80;;;2.30;;
77004;SDS011;67261;53.132;18.006;2023-07-31T13:32:12;5.40;;;2.10;;
77004;SDS011;67261;53.132;18.006;2023-07-31T13:34:38;4.30;;;2.40;;
77004;SDS011;67261;53.132;18.006;2023-07-31T13:37:05;3.70;;;1.80;;
77004;SDS011;67261;53.132;18.006;2023-07-31T13:39:34;5.10;;;1.90;;
77004;SDS011;67261;53.132;18.006;2023-07-31T13:42:02;3.50;;;1.90;;
77004;SDS011;67261;53.132;18.006;2023-07-31T13:44:29;4.00;;;1.90;;
77004;SDS011;67261;53.132;18.006;2023-07-31T13:46:55;4.40;;;2.10;;
77004;SDS011;67261;53.132;18.006;2023-07-31T13:49:22;4.30;;;1.90;;
77004;SDS011;67261;53.132;18.006;2023-07-31T13:51:50;4.90;;;2.30;;
77004;SDS011;67261;53.132;18.006;2023-07-31T13:54:17;5.70;;;1.90;;
77004;SDS011;67261;53.132;18.006;2023-07-31T13:56:43;5.70;;;2.10;;
77004;SDS011;67261;53.132;18.006;2023-07-31T13:59:10;4.50;;;2.20;;
77004;SDS011;67261;53.132;18.006;2023-07-31T14:01:41;3.60;;;1.80;;
77004;SDS011;67261;53.132;18.006;2023-07-31T14:04:08;4.40;;;2.20;;
77004;SDS011;67261;53.132;18.006;2023-07-31T14:06:37;4.00;;;2.20;;
77004;SDS011;67261;53.132;18.006;2023-07-31T14:09:03;3.70;;;1.70;;
77004;SDS011;67261;53.132;18.006;2023-07-31T14:11:33;4.50;;;1.90;;
77004;SDS011;67261;53.132;18.006;2023-07-31T14:14:00;3.40;;;1.70;;
77004;SDS011;67261;53.132;18.006;2023-07-31T14:16:28;4.00;;;1.80;;
77004;SDS011;67261;53.132;18.006;2023-07-31T14:18:54;3.70;;;1.90;;
77004;SDS011;67261;53.132;18.006;2023-07-31T14:21:22;3.60;;;1.70;;
77004;SDS011;67261;53.132;18.006;2023-07-31T14:23:48;3.40;;;1.90;;
77004;SDS011;67261;53.132;18.006;2023-07-31T14:26:14;4.10;;;1.90;;
77004;SDS011;67261;53.132;18.006;2023-07-31T14:28:41;4.10;;;1.90;;
77004;SDS011;67261;53.132;18.006;2023-07-31T14:31:09;4.10;;;1.50;;
77004;SDS011;67261;53.132;18.006;2023-07-31T14:33:35;8.90;;;5.20;;
77004;SDS011;67261;53.132;18.006;2023-07-31T14:36:02;9.70;;;7.50;;
77004;SDS011;67261;53.132;18.006;2023-07-31T14:38:28;5.80;;;2.40;;
77004;SDS011;67261;53.132;18.006;2023-07-31T14:40:57;5.90;;;2.50;;
77004;SDS011;67261;53.132;18.006;2023-07-31T14:43:24;5.20;;;2.00;;
77004;SDS011;67261;53.132;18.006;2023-07-31T14:45:50;4.50;;;2.10;;
77004;SDS011;67261;53.132;18.006;2023-07-31T14:48:19;3.20;;;1.70;;
77004;SDS011;67261;53.132;18.006;2023-07-31T14:50:46;4.70;;;1.90;;
77004;SDS011;67261;53.132;18.006;2023-07-31T14:53:12;4.50;;;2.30;;
77004;SDS011;67261;53.132;18.006;2023-07-31T14:55:39;4.30;;;1.90;;